Time;durP1;ratioP1;P1;durP2;ratioP2;P2;SDS_P1;SDS_P2;PMS_P1;PMS_P2;Temp;Humidity;BMP_temperature;BMP_pressure;BME280_temperature;BME280_humidity;BME280_pressure;Samples;Min_cycle;Max_cycle;Signal;HPM_P1;HPM_P2
2021/06/06 00:00:56;;;;;;;11.95;3.28;;;;;;;22.18;61.52;100759.88;5055315;28;20052;-76
2021/06/06 00:04:01;;;;;;;12.25;3.72;;;;;;;22.25;61.37;100749.81;5055052;28;20052;-76
2021/06/06 00:07:07;;;;;;;17.17;4.30;;;;;;;22.27;61.58;100753.19;5060535;28;20056;-75
2021/06/06 00:10:12;;;;;;;12.00;3.00;;;;;;;22.41;60.96;100760.47;5054585;28;20107;-75
2021/06/06 00:13:19;;;;;;;10.32;3.10;;;;;;;22.51;60.43;100754.63;5054752;28;20052;-75
2021/06/06 00:16:30;;;;;;;11.93;2.60;;;;;;;22.58;60.06;100758.22;5054478;28;20499;-76
2021/06/06 00:19:35;;;;;;;12.40;3.67;;;;;;;22.59;60.07;100752.53;5052917;28;20076;-76
2021/06/06 00:22:41;;;;;;;11.77;3.13;;;;;;;22.65;59.65;100751.78;5054631;28;20510;-75
2021/06/06 00:25:45;;;;;;;14.30;3.17;;;;;;;22.63;59.60;100740.19;5054617;28;20044;-76
2021/06/06 00:28:50;;;;;;;11.05;3.05;;;;;;;22.66;59.95;100749.88;5053700;28;20088;-75
2021/06/06 00:31:55;;;;;;;12.52;2.92;;;;;;;22.70;59.54;100748.41;5054460;28;20068;-75
2021/06/06 00:35:00;;;;;;;11.18;3.03;;;;;;;22.72;59.43;100740.84;5053606;28;20044;-76
2021/06/06 00:38:04;;;;;;;15.73;3.75;;;;;;;22.67;59.66;100743.34;5054336;28;20138;-76
2021/06/06 00:41:11;;;;;;;10.10;3.00;;;;;;;22.65;59.77;100737.25;5053560;28;20391;-76
2021/06/06 00:44:20;;;;;;;15.57;3.47;;;;;;;22.63;60.30;100736.59;5053494;28;20115;-76
2021/06/06 00:47:28;;;;;;;11.95;3.05;;;;;;;22.51;60.77;100735.47;5053693;28;20483;-76
2021/06/06 00:50:40;;;;;;;13.85;3.17;;;;;;;22.37;61.09;100722.72;5054240;28;20056;-76
2021/06/06 00:54:05;;;;;;;14.43;3.22;;;;;;;22.32;61.17;100730.72;5053835;28;20059;-76
2021/06/06 00:57:11;;;;;;;16.80;3.17;;;;;;;22.26;61.71;100721.44;5052948;28;20056;-76
2021/06/06 01:00:38;;;;;;;10.85;3.72;;;;;;;22.21;62.07;100732.13;5053419;28;20055;-76
2021/06/06 01:03:46;;;;;;;10.25;2.80;;;;;;;22.13;62.75;100723.22;5053991;28;20063;-76
2021/06/06 01:06:53;;;;;;;13.95;4.45;;;;;;;22.14;62.34;100720.31;5052932;28;20048;-75
2021/06/06 01:10:02;;;;;;;9.38;2.60;;;;;;;22.02;62.37;100721.91;5053046;28;20052;-76
2021/06/06 01:13:31;;;;;;;12.48;3.42;;;;;;;21.85;63.09;100715.88;5053264;28;20051;-76
2021/06/06 01:17:03;;;;;;;13.35;3.30;;;;;;;21.84;63.34;100716.91;5053756;28;20487;-77
2021/06/06 01:20:16;;;;;;;12.15;3.42;;;;;;;21.68;63.50;100714.44;5052918;28;20056;-76
2021/06/06 01:24:01;;;;;;;11.10;3.22;;;;;;;21.64;63.66;100715.91;5052898;28;20052;-76
2021/06/06 01:27:13;;;;;;;13.05;3.03;;;;;;;21.66;63.74;100707.50;5052625;28;20048;-76
2021/06/06 01:30:31;;;;;;;12.15;3.72;;;;;;;21.65;63.91;100708.56;5054985;28;20052;-76
2021/06/06 01:34:08;;;;;;;10.93;2.72;;;;;;;21.77;63.65;100701.50;5057785;28;20060;-75
2021/06/06 01:37:17;;;;;;;12.35;2.83;;;;;;;21.93;62.95;100704.81;5057530;28;20048;-75
2021/06/06 01:40:26;;;;;;;13.40;3.28;;;;;;;21.98;63.55;100706.94;5056699;28;20044;-76
2021/06/06 01:43:36;;;;;;;11.75;2.75;;;;;;;22.04;63.06;100706.16;5057615;28;20392;-76
2021/06/06 01:46:49;;;;;;;13.13;3.30;;;;;;;21.99;63.35;100695.81;5045330;28;20052;-76
2021/06/06 01:50:05;;;;;;;11.90;2.70;;;;;;;22.03;64.12;100704.44;5057205;28;20055;-76
2021/06/06 01:53:13;;;;;;;10.27;2.85;;;;;;;21.99;64.32;100697.69;5056600;28;20048;-75
2021/06/06 01:56:15;;;;;;;13.60;2.97;;;;;;;22.06;64.17;100706.78;5064010;28;20132;-76
2021/06/06 01:59:38;;;;;;;12.02;3.33;;;;;;;22.07;64.13;100708.50;5035644;28;20057;-76
2021/06/06 02:02:25;;;;;;;11.35;2.80;;;;;;;22.08;63.81;100701.97;5041635;28;20584;-76
2021/06/06 02:05:30;;;;;;;10.68;2.95;;;;;;;22.06;63.69;100700.47;5035486;28;20145;-75
2021/06/06 02:08:37;;;;;;;15.30;3.17;;;;;;;22.04;64.19;100703.41;5034619;28;20149;-76
2021/06/06 02:11:58;;;;;;;9.77;2.60;;;;;;;22.08;64.25;100701.09;5013051;28;20551;-76
2021/06/06 02:15:24;;;;;;;8.68;2.95;;;;;;;22.15;63.87;100704.72;5034541;28;20056;-76
2021/06/06 02:18:31;;;;;;;10.47;3.20;;;;;;;;;;5041178;28;20132;-76
2021/06/06 02:21:26;;;;;;;10.32;2.85;;;;;;;22.23;63.44;100708.16;5014535;28;20042;-76
2021/06/06 02:24:33;;;;;;;10.18;2.92;;;;;;;22.22;63.47;100709.19;5035283;28;20056;-76
2021/06/06 02:28:04;;;;;;;11.13;3.00;;;;;;;22.14;63.85;100711.25;5017028;28;20543;-76
2021/06/06 02:31:21;;;;;;;14.80;3.30;;;;;;;22.13;63.66;100712.28;4937548;29;20168;-84
2021/06/06 02:34:27;;;;;;;12.40;3.58;;;;;;;22.06;64.06;100705.94;4926671;29;20050;-76
2021/06/06 02:37:42;;;;;;;14.50;3.28;;;;;;;22.09;63.77;100706.41;4899157;29;20068;-76
2021/06/06 02:40:38;;;;;;;10.75;2.75;;;;;;;21.99;63.92;100706.75;4889041;29;20056;-78
2021/06/06 02:44:23;;;;;;;9.40;3.03;;;;;;;22.01;64.10;100706.53;4888388;29;20060;-75
2021/06/06 02:47:38;;;;;;;14.00;3.80;;;;;;;22.05;64.08;100696.88;4878891;29;20051;-75
2021/06/06 02:50:51;;;;;;;8.25;2.65;;;;;;;22.05;64.15;100694.16;4888812;29;20072;-76
2021/06/06 02:54:02;;;;;;;11.32;2.50;;;;;;;22.10;63.67;100704.50;4888736;29;20056;-76
2021/06/06 02:57:15;;;;;;;10.73;3.10;;;;;;;22.08;64.19;100693.75;4877944;29;20047;-76
2021/06/06 03:00:30;;;;;;;12.23;3.20;;;;;;;22.07;64.58;100691.22;4888456;29;20051;-76
2021/06/06 03:03:38;;;;;;;9.75;2.67;;;;;;;22.00;65.07;100692.03;4898692;29;20060;-76
2021/06/06 03:07:01;;;;;;;9.23;2.65;;;;;;;21.95;65.07;100688.19;4947693;28;20054;-76
2021/06/06 03:10:09;;;;;;;11.95;3.47;;;;;;;21.94;64.88;100689.25;4975081;28;20058;-76
2021/06/06 03:13:30;;;;;;;10.55;3.25;;;;;;;21.86;65.95;100689.41;4975989;28;20162;-75
2021/06/06 03:16:39;;;;;;;15.50;3.20;;;;;;;21.85;66.21;100687.72;5043610;28;20091;-75
2021/06/06 03:19:49;;;;;;;13.73;3.67;;;;;;;21.78;66.87;100689.50;5054892;28;20075;-76
2021/06/06 03:22:57;;;;;;;13.60;3.65;;;;;;;21.82;66.30;100682.63;5054951;28;20052;-75
2021/06/06 03:26:11;;;;;;;11.75;3.45;;;;;;;21.78;67.17;100682.16;5054935;28;20056;-75
2021/06/06 03:29:34;;;;;;;11.45;3.00;;;;;;;21.76;67.60;100692.44;5054812;28;20377;-75
2021/06/06 03:32:42;;;;;;;11.63;3.45;;;;;;;21.78;68.43;100687.63;5054698;28;20060;-76
2021/06/06 03:35:50;;;;;;;13.57;2.83;;;;;;;21.78;71.66;100678.56;5043387;28;20052;-75
2021/06/06 03:38:37;;;;;;;10.40;3.25;;;;;;;21.75;72.12;100679.00;5061765;28;20056;-75
2021/06/06 03:41:25;;;;;;;10.15;3.20;;;;;;;21.68;72.53;100687.13;5060774;28;20052;-76
2021/06/06 03:44:13;;;;;;;8.82;3.30;;;;;;;21.60;73.85;100689.19;5061037;28;20052;-76
2021/06/06 03:46:59;;;;;;;9.98;3.20;;;;;;;21.53;74.72;100689.09;5060700;28;20048;-77
2021/06/06 03:49:46;;;;;;;11.48;3.50;;;;;;;21.57;74.75;100686.84;5046532;28;20052;-76
2021/06/06 03:52:34;;;;;;;13.68;3.97;;;;;;;21.60;75.50;100686.44;5060764;28;20052;-76
2021/06/06 03:55:22;;;;;;;13.48;4.28;;;;;;;21.51;74.51;100685.72;5046777;28;20056;-75
2021/06/06 03:58:12;;;;;;;12.00;3.80;;;;;;;21.49;74.78;100697.88;5061263;28;20068;-75
2021/06/06 04:00:59;;;;;;;12.55;4.03;;;;;;;21.42;73.90;100686.06;5060635;28;20071;-75
2021/06/06 04:03:50;;;;;;;10.57;3.67;;;;;;;21.47;73.25;100697.25;5060620;28;20044;-75
2021/06/06 04:06:38;;;;;;;9.50;3.83;;;;;;;21.45;73.37;100697.47;5060322;28;20392;-76
2021/06/06 04:09:24;;;;;;;15.68;5.30;;;;;;;21.43;73.01;100707.72;5061523;28;20059;-76
2021/06/06 04:12:29;;;;;;;11.25;4.28;;;;;;;21.44;73.11;100706.69;5055037;28;20052;-76
2021/06/06 04:15:17;;;;;;;17.48;5.28;;;;;;;21.50;72.91;100716.84;5061100;28;20408;-76
2021/06/06 04:18:16;;;;;;;14.70;3.90;;;;;;;21.50;71.91;100716.84;5060341;28;20487;-75
2021/06/06 04:21:10;;;;;;;11.38;4.78;;;;;;;21.39;70.98;100710.00;5060252;28;20060;-76
2021/06/06 04:23:57;;;;;;;12.95;4.30;;;;;;;21.29;70.92;100708.63;5060308;28;20052;-75
2021/06/06 04:26:43;;;;;;;16.02;4.72;;;;;;;21.27;70.18;100708.00;5060582;28;20392;-75
2021/06/06 04:29:29;;;;;;;14.55;4.07;;;;;;;21.30;70.27;100721.25;5060758;28;20403;-76
2021/06/06 04:32:21;;;;;;;12.38;4.00;;;;;;;21.24;70.24;100711.09;5060802;28;20040;-75
2021/06/06 04:35:08;;;;;;;10.60;4.93;;;;;;;21.30;69.58;100700.25;5059761;28;20060;-76
2021/06/06 04:37:56;;;;;;;12.98;4.65;;;;;;;21.38;69.25;100707.44;5061088;28;20055;-75
2021/06/06 04:40:45;;;;;;;10.80;3.53;;;;;;;21.45;69.44;100713.84;5059934;28;20044;-75
2021/06/06 04:43:50;;;;;;;13.15;3.95;;;;;;;21.46;69.57;100715.50;5054183;28;20116;-75
2021/06/06 04:46:37;;;;;;;12.38;3.97;;;;;;;21.52;69.65;100719.34;5060624;28;20059;-75
2021/06/06 04:49:25;;;;;;;11.13;4.32;;;;;;;21.69;69.38;100720.75;5060855;28;20048;-75
2021/06/06 04:52:13;;;;;;;15.23;4.43;;;;;;;21.83;68.85;100709.75;5059813;28;20056;-75
2021/06/06 04:55:10;;;;;;;12.75;4.00;;;;;;;21.94;68.00;100716.59;5059234;28;20048;-75
2021/06/06 04:58:19;;;;;;;14.48;4.13;;;;;;;22.03;67.50;100715.38;5042143;28;20055;-75
2021/06/06 05:01:05;;;;;;;12.82;3.78;;;;;;;21.98;67.38;100709.66;5060426;28;20071;-75
2021/06/06 05:03:52;;;;;;;10.70;3.72;;;;;;;22.05;67.34;100710.56;5059656;28;20063;-75
2021/06/06 05:06:40;;;;;;;13.07;4.20;;;;;;;22.10;66.99;100712.72;5045382;28;20048;-76
2021/06/06 05:09:28;;;;;;;12.30;4.00;;;;;;;22.13;67.26;100715.03;5059581;28;20072;-76
2021/06/06 05:12:41;;;;;;;11.43;4.05;;;;;;;22.18;67.46;100712.53;5053659;28;20052;-76
2021/06/06 05:15:28;;;;;;;12.70;4.15;;;;;;;22.16;67.31;100717.34;5059005;28;20052;-75
2021/06/06 05:18:16;;;;;;;17.40;5.18;;;;;;;22.17;67.34;100719.88;5059554;28;20068;-75
2021/06/06 05:21:04;;;;;;;14.52;4.35;;;;;;;22.08;67.46;100717.50;5045521;28;20052;-75
2021/06/06 05:24:08;;;;;;;14.15;4.20;;;;;;;22.04;68.11;100711.63;5052738;28;20048;-75
2021/06/06 05:26:54;;;;;;;15.43;4.65;;;;;;;22.05;68.05;100717.94;5060438;28;20052;-75
2021/06/06 05:29:40;;;;;;;13.65;5.05;;;;;;;22.05;67.30;100716.03;5060366;28;20052;-75
2021/06/06 05:32:26;;;;;;;15.18;5.18;;;;;;;21.88;67.87;100718.22;5060110;28;20408;-77
2021/06/06 05:35:12;;;;;;;14.02;4.72;;;;;;;21.95;67.04;100716.38;5059836;28;20055;-75
2021/06/06 05:37:59;;;;;;;18.25;4.97;;;;;;;22.10;66.93;100715.44;5059296;28;20044;-77
2021/06/06 05:40:45;;;;;;;16.20;5.05;;;;;;;22.35;66.90;100709.28;5058965;28;20048;-75
2021/06/06 05:43:31;;;;;;;13.40;4.50;;;;;;;22.70;66.00;100720.19;5059071;28;20499;-75
2021/06/06 05:46:19;;;;;;;13.45;4.88;;;;;;;23.01;65.07;100721.38;5059063;28;20056;-75
2021/06/06 05:49:05;;;;;;;13.02;4.80;;;;;;;23.28;64.27;100723.13;5060243;28;20523;-75
2021/06/06 05:52:10;;;;;;;15.90;4.57;;;;;;;23.47;63.71;100721.50;5053541;28;20500;-76
2021/06/06 05:54:56;;;;;;;11.05;5.45;;;;;;;23.50;63.55;100721.09;5059904;28;20044;-75
2021/06/06 05:57:41;;;;;;;15.45;5.80;;;;;;;23.36;63.64;100724.84;5060204;28;20064;-75
2021/06/06 06:00:32;;;;;;;10.90;6.05;;;;;;;23.02;64.51;100730.44;5059853;28;20060;-75
2021/06/06 06:03:18;;;;;;;15.45;6.28;;;;;;;22.98;64.88;100719.06;5059861;28;20044;-76
2021/06/06 06:06:06;;;;;;;15.45;6.40;;;;;;;22.81;65.78;100720.47;5059921;28;20048;-75
2021/06/06 06:08:54;;;;;;;32.67;23.88;;;;;;;22.93;65.66;100720.72;5053786;28;20056;-82
2021/06/06 06:11:59;;;;;;;138.45;123.78;;;;;;;23.21;64.91;100718.66;5053366;28;20041;-75
2021/06/06 06:14:51;;;;;;;20.15;13.13;;;;;;;23.58;64.62;100720.03;5060074;28;20037;-85
2021/06/06 06:17:37;;;;;;;13.32;7.75;;;;;;;23.96;62.79;100712.84;5060474;28;20048;-75
2021/06/06 06:20:23;;;;;;;16.75;7.85;;;;;;;24.50;61.93;100721.63;5063130;28;20491;-75
2021/06/06 06:23:10;;;;;;;16.63;7.22;;;;;;;25.04;60.08;100718.47;5063605;28;20064;-76
2021/06/06 06:25:56;;;;;;;15.25;7.70;;;;;;;26.57;55.25;100720.56;5063364;28;20044;-76
2021/06/06 06:28:46;;;;;;;17.75;7.07;;;;;;;30.22;45.95;100707.44;5063292;28;20052;-85
2021/06/06 06:31:52;;;;;;;15.15;6.18;;;;;;;34.11;37.74;100706.34;5056711;28;20384;-76
2021/06/06 06:35:18;;;;;;;15.02;6.32;;;;;;;36.21;33.36;100702.66;5055932;28;20091;-76
2021/06/06 06:38:06;;;;;;;17.83;6.57;;;;;;;38.05;30.34;100697.91;5062454;28;20043;-77
2021/06/06 06:40:52;;;;;;;12.70;5.85;;;;;;;38.31;30.11;100704.72;5061947;28;20052;-73
2021/06/06 06:43:57;;;;;;;14.82;4.80;;;;;;;39.73;27.81;100713.72;5056545;28;20052;-77
2021/06/06 06:46:43;;;;;;;10.38;5.10;;;;;;;40.04;27.29;100708.97;5063241;28;20380;-84
2021/06/06 06:49:31;;;;;;;13.55;5.32;;;;;;;36.67;31.71;100718.94;5061959;28;20052;-77
2021/06/06 06:52:39;;;;;;;20.63;15.93;;;;;;;34.75;35.17;100716.78;5056488;28;20067;-76
2021/06/06 06:55:43;;;;;;;14.43;8.45;;;;;;;31.75;39.82;100723.69;5055861;28;20041;-76
2021/06/06 06:58:49;;;;;;;14.40;6.13;;;;;;;31.31;41.36;100716.59;5056327;28;20475;-76
2021/06/06 07:01:58;;;;;;;16.23;5.70;;;;;;;31.36;41.99;100711.94;5055543;28;20056;-76
2021/06/06 07:04:44;;;;;;;12.52;4.60;;;;;;;33.82;37.15;100703.28;5061989;28;20048;-76
2021/06/06 07:07:30;;;;;;;14.30;5.03;;;;;;;32.89;37.86;100709.19;5060734;28;20052;-76
2021/06/06 07:10:37;;;;;;;17.65;5.25;;;;;;;33.16;37.25;100705.13;5056155;28;20052;-77
2021/06/06 07:13:42;;;;;;;17.73;5.32;;;;;;;32.92;38.47;100709.47;5055232;28;20055;-76
2021/06/06 07:16:47;;;;;;;13.10;5.05;;;;;;;32.20;39.94;100711.28;5055755;28;20543;-76
2021/06/06 07:19:32;;;;;;;15.93;5.78;;;;;;;31.88;40.00;100705.75;5062195;28;20048;-83
2021/06/06 07:22:19;;;;;;;12.75;5.72;;;;;;;31.54;40.98;100702.44;5061618;28;20053;-76
2021/06/06 07:25:08;;;;;;;16.50;5.97;;;;;;;33.12;37.85;100701.22;5061327;28;20483;-85
2021/06/06 07:27:54;;;;;;;16.02;5.75;;;;;;;33.09;38.34;100698.13;5062041;28;20048;-81
2021/06/06 07:30:46;;;;;;;16.67;5.43;;;;;;;34.79;35.91;100695.56;5061948;28;20039;-79
2021/06/06 07:33:51;;;;;;;14.10;5.28;;;;;;;37.60;31.71;100694.69;5054715;28;20048;-76
2021/06/06 07:36:37;;;;;;;15.73;5.28;;;;;;;39.93;27.82;100699.09;5062171;28;20063;-77
2021/06/06 07:39:43;;;;;;;11.32;4.63;;;;;;;42.27;25.30;100696.09;5055401;28;20063;-73
2021/06/06 07:42:49;;;;;;;14.40;4.82;;;;;;;43.68;24.10;100693.41;5054614;28;20044;-77
2021/06/06 07:45:53;;;;;;;15.20;5.97;;;;;;;42.83;24.62;100697.69;5054231;28;20056;-74
2021/06/06 07:48:58;;;;;;;14.77;4.90;;;;;;;40.92;26.16;100698.59;5054866;28;20068;-74
2021/06/06 07:52:03;;;;;;;10.27;4.55;;;;;;;40.15;27.16;100697.13;5055194;28;20080;-73
2021/06/06 07:55:11;;;;;;;16.67;5.63;;;;;;;37.37;30.47;100698.41;5055199;28;20123;-74
2021/06/06 07:58:20;;;;;;;14.27;5.22;;;;;;;36.30;32.45;100692.50;5054866;28;20487;-74
2021/06/06 08:01:25;;;;;;;12.93;5.38;;;;;;;35.78;33.30;100686.84;5054925;28;20056;-75
2021/06/06 08:04:31;;;;;;;14.77;5.30;;;;;;;34.48;35.52;100686.44;5055005;28;20494;-75
2021/06/06 08:07:35;;;;;;;12.80;5.82;;;;;;;33.87;36.79;100688.50;5054630;28;20519;-75
2021/06/06 08:10:45;;;;;;;13.93;5.68;;;;;;;34.76;34.95;100696.13;5054986;28;20124;-81
2021/06/06 08:13:52;;;;;;;11.82;5.18;;;;;;;34.60;34.82;100689.78;5054868;28;20048;-75
2021/06/06 08:16:56;;;;;;;15.68;5.50;;;;;;;34.75;35.21;100675.75;5054811;28;20052;-74
2021/06/06 08:20:00;;;;;;;15.43;5.80;;;;;;;34.28;35.46;100683.72;5054765;28;20052;-74
2021/06/06 08:23:07;;;;;;;11.88;5.65;;;;;;;31.89;39.32;100688.84;5054661;28;20056;-74
2021/06/06 08:26:17;;;;;;;17.35;5.72;;;;;;;31.89;40.37;100688.84;5054566;28;20056;-75
2021/06/06 08:29:22;;;;;;;14.70;5.45;;;;;;;32.19;39.80;100688.25;5054626;28;20048;-74
2021/06/06 08:32:26;;;;;;;13.55;5.82;;;;;;;31.63;40.78;100698.06;5053452;28;20048;-74
2021/06/06 08:35:30;;;;;;;13.63;5.07;;;;;;;31.55;40.59;100692.16;5054449;28;20067;-75
2021/06/06 08:38:36;;;;;;;14.63;5.60;;;;;;;31.11;40.75;100692.25;5054412;28;20052;-74
2021/06/06 08:42:10;;;;;;;12.20;4.88;;;;;;;30.74;42.10;100688.44;5054080;28;20055;-74
2021/06/06 08:45:35;;;;;;;13.65;5.60;;;;;;;30.28;42.43;100689.78;5054269;28;20052;-77
2021/06/06 08:48:40;;;;;;;14.38;5.50;;;;;;;30.06;43.02;100689.72;5054299;28;20494;-74
2021/06/06 08:51:51;;;;;;;16.20;5.72;;;;;;;29.87;44.18;100690.25;5054279;28;20048;-74
2021/06/06 08:55:04;;;;;;;16.98;6.20;;;;;;;29.60;44.95;100692.84;5053077;28;20048;-75
2021/06/06 08:58:19;;;;;;;15.55;5.82;;;;;;;29.20;46.06;100692.94;5053271;28;20044;-74
2021/06/06 09:01:43;;;;;;;15.18;6.50;;;;;;;29.49;44.36;100685.44;5053810;28;20507;-74
2021/06/06 09:04:49;;;;;;;12.82;5.80;;;;;;;29.67;44.11;100682.44;5053272;28;20052;-77
2021/06/06 09:07:57;;;;;;;18.23;6.88;;;;;;;29.18;45.34;100685.97;5052654;28;20052;-74
2021/06/06 09:11:08;;;;;;;21.30;5.60;;;;;;;29.42;44.40;100677.31;5053077;28;20063;-75
2021/06/06 09:14:13;;;;;;;12.00;4.75;;;;;;;30.00;43.54;100682.44;5052993;28;20091;-75
2021/06/06 09:17:32;;;;;;;13.18;5.30;;;;;;;30.47;43.12;100673.72;5053815;28;20187;-75
2021/06/06 09:20:42;;;;;;;14.13;5.15;;;;;;;30.85;42.47;100671.69;5053488;28;20052;-75
2021/06/06 09:23:51;;;;;;;13.95;5.72;;;;;;;30.39;42.75;100680.56;5053748;28;20048;-75
2021/06/06 09:27:25;;;;;;;20.00;6.55;;;;;;;29.30;44.88;100679.31;5054047;28;20054;-75
2021/06/06 09:30:29;;;;;;;13.02;4.78;;;;;;;29.48;45.26;100675.47;5053388;28;20044;-75
2021/06/06 09:33:48;;;;;;;14.90;5.65;;;;;;;29.05;45.10;100670.50;5053918;28;20052;-75
2021/06/06 09:37:10;;;;;;;13.73;5.18;;;;;;;29.06;46.45;100669.41;5053437;28;20048;-75
2021/06/06 09:40:32;;;;;;;19.17;6.38;;;;;;;29.10;45.47;100670.59;5053403;28;20048;-75
2021/06/06 09:43:37;;;;;;;14.43;6.05;;;;;;;29.25;44.95;100654.31;5053656;28;20052;-75
2021/06/06 09:46:46;;;;;;;15.50;5.93;;;;;;;29.32;45.14;100659.69;5053553;28;20059;-75
2021/06/06 09:50:16;;;;;;;15.55;5.30;;;;;;;29.16;45.94;100663.25;5053181;28;20052;-75
2021/06/06 09:53:31;;;;;;;13.82;5.93;;;;;;;28.90;45.64;100656.38;5057566;28;20483;-75
2021/06/06 09:56:36;;;;;;;19.02;5.55;;;;;;;28.94;45.45;100647.34;5057536;28;20044;-75
2021/06/06 09:59:41;;;;;;;10.98;5.32;;;;;;;28.79;45.53;100649.81;5057172;28;20068;-74
2021/06/06 10:03:03;;;;;;;17.98;6.30;;;;;;;29.38;44.56;100647.63;5057450;28;20048;-74
2021/06/06 10:06:23;;;;;;;11.75;5.20;;;;;;;29.46;44.81;100641.66;5057326;28;20502;-75
2021/06/06 10:09:29;;;;;;;16.58;6.03;;;;;;;29.51;45.20;100641.75;5057127;28;20487;-75
2021/06/06 10:12:40;;;;;;;12.93;4.95;;;;;;;29.96;44.08;100631.44;5057236;28;20479;-75
2021/06/06 10:15:49;;;;;;;14.65;5.72;;;;;;;29.86;44.36;100628.50;5057033;28;20048;-74
2021/06/06 10:19:01;;;;;;;17.45;6.30;;;;;;;29.63;45.07;100634.19;5055941;28;20048;-75
2021/06/06 10:22:17;;;;;;;15.55;5.70;;;;;;;29.50;45.24;100617.97;5057086;28;20082;-75
2021/06/06 10:25:26;;;;;;;15.20;5.35;;;;;;;29.29;46.03;100625.06;5057188;28;20044;-75
2021/06/06 10:28:40;;;;;;;12.55;5.63;;;;;;;29.19;46.07;100621.25;5056853;28;20044;-75
2021/06/06 10:31:47;;;;;;;14.05;4.85;;;;;;;28.94;46.25;100618.88;5056733;28;20059;-74
2021/06/06 10:35:12;;;;;;;15.38;5.97;;;;;;;28.87;46.27;100613.50;5056461;28;20064;-75
2021/06/06 10:38:17;;;;;;;20.55;6.57;;;;;;;28.87;46.50;100602.44;5056767;28;20476;-75
2021/06/06 10:41:21;;;;;;;18.55;5.57;;;;;;;28.87;46.46;100613.50;5055882;28;20052;-75
2021/06/06 10:44:50;;;;;;;13.88;5.55;;;;;;;28.67;46.07;100610.34;5055882;28;20055;-76
2021/06/06 10:47:58;;;;;;;11.68;3.88;;;;;;;28.66;46.47;100605.06;5055757;28;20040;-75
2021/06/06 10:51:16;;;;;;;19.42;5.30;;;;;;;28.70;45.62;100609.84;5055607;28;20044;-76
2021/06/06 10:54:49;;;;;;;12.65;4.47;;;;;;;28.80;45.91;100603.69;5056455;28;20044;-75
2021/06/06 10:57:54;;;;;;;17.73;5.65;;;;;;;29.05;45.46;100609.69;5056650;28;20052;-75
2021/06/06 11:01:20;;;;;;;11.55;4.95;;;;;;;29.12;46.22;100601.22;5055691;28;20052;-75
2021/06/06 11:04:28;;;;;;;16.83;5.03;;;;;;;28.62;46.85;100595.59;5054669;28;20052;-75
2021/06/06 11:07:43;;;;;;;14.32;5.32;;;;;;;28.66;47.21;100597.63;5055821;28;20075;-75
2021/06/06 11:10:47;;;;;;;15.35;5.05;;;;;;;28.65;47.39;100593.19;5056050;28;20051;-75
2021/06/06 11:14:12;;;;;;;12.52;5.30;;;;;;;28.36;46.93;100592.31;5056330;28;20071;-75
2021/06/06 11:17:37;;;;;;;16.83;5.50;;;;;;;28.65;47.29;100590.41;5055952;28;20048;-76
2021/06/06 11:20:56;;;;;;;14.30;5.00;;;;;;;28.50;46.35;100583.72;5055747;28;20059;-75
2021/06/06 11:24:07;;;;;;;14.23;5.40;;;;;;;28.38;47.08;100584.59;5055111;28;20048;-76
2021/06/06 11:27:22;;;;;;;16.45;5.18;;;;;;;28.50;48.17;100578.19;5055544;28;20487;-75
2021/06/06 11:30:27;;;;;;;13.50;4.40;;;;;;;28.56;46.64;100567.00;5055813;28;20048;-75
2021/06/06 11:33:53;;;;;;;10.27;3.95;;;;;;;28.74;45.70;100569.59;5055723;28;20483;-75
2021/06/06 11:37:13;;;;;;;8.20;3.80;;;;;;;28.80;46.86;100563.06;5055626;28;20388;-75
2021/06/06 11:40:38;;;;;;;16.13;4.82;;;;;;;28.53;46.09;100561.13;5054784;28;20376;-75
2021/06/06 11:43:49;;;;;;;13.90;3.90;;;;;;;28.65;46.45;100559.19;5055508;28;20103;-75
2021/06/06 11:47:08;;;;;;;15.52;4.82;;;;;;;28.47;46.90;100557.41;5055669;28;20056;-76
2021/06/06 11:50:35;;;;;;;13.48;5.30;;;;;;;28.08;47.37;100558.28;5055412;28;20048;-76
2021/06/06 11:53:42;;;;;;;11.82;5.55;;;;;;;27.41;49.61;100546.81;5055308;28;20072;-79
2021/06/06 11:56:46;;;;;;;15.15;6.00;;;;;;;27.65;49.44;100547.66;5055214;28;20475;-75
2021/06/06 11:59:56;;;;;;;15.50;5.07;;;;;;;27.95;48.66;100539.22;5054355;28;20052;-77
2021/06/06 12:03:28;;;;;;;23.20;6.13;;;;;;;28.08;48.48;100536.19;5055109;28;20048;-77
2021/06/06 12:06:33;;;;;;;12.75;5.53;;;;;;;28.33;47.99;100529.28;5053983;28;20052;-75
2021/06/06 12:09:39;;;;;;;11.10;5.20;;;;;;;28.30;47.94;100529.75;5054661;28;20056;-75
2021/06/06 12:12:49;;;;;;;14.00;5.57;;;;;;;28.29;47.39;100536.34;5054131;28;20503;-75
2021/06/06 12:16:13;;;;;;;12.77;4.32;;;;;;;28.06;47.07;100533.69;5055089;28;20052;-75
2021/06/06 12:19:24;;;;;;;12.82;4.97;;;;;;;28.11;47.25;100536.56;5053963;28;20056;-75
2021/06/06 12:22:33;;;;;;;14.20;4.70;;;;;;;28.02;47.80;100537.19;5053870;28;20056;-77
2021/06/06 12:25:38;;;;;;;15.18;4.55;;;;;;;28.12;48.07;100534.66;5054677;28;20499;-75
2021/06/06 12:28:49;;;;;;;11.57;4.20;;;;;;;28.26;47.76;100527.75;5053828;28;20048;-74
2021/06/06 12:31:54;;;;;;;11.30;4.90;;;;;;;27.88;48.01;100525.53;5054604;28;20063;-76
2021/06/06 12:35:10;;;;;;;10.82;4.55;;;;;;;27.53;49.82;100539.38;5053777;28;20060;-76
2021/06/06 12:38:17;;;;;;;12.63;4.47;;;;;;;27.04;52.71;100528.78;5053638;28;20052;-77
2021/06/06 12:41:21;;;;;;;16.60;4.30;;;;;;;26.98;53.61;100535.25;5054487;28;20047;-76
2021/06/06 12:44:30;;;;;;;18.67;5.63;;;;;;;27.18;53.38;100538.53;5054416;28;20052;-77
2021/06/06 12:47:38;;;;;;;13.80;3.95;;;;;;;27.16;53.72;100535.13;5053988;28;20052;-76
2021/06/06 12:50:44;;;;;;;10.00;3.75;;;;;;;27.45;53.77;100537.00;5054269;28;20072;-77
2021/06/06 12:53:52;;;;;;;8.63;3.65;;;;;;;27.32;54.01;100539.09;5041937;28;20056;-77
2021/06/06 12:57:13;;;;;;;10.25;3.97;;;;;;;27.11;53.81;100527.59;5053896;28;20048;-82
2021/06/06 13:00:28;;;;;;;8.93;3.63;;;;;;;26.60;54.36;100537.50;5053764;28;20072;-76
2021/06/06 13:03:43;;;;;;;10.00;2.95;;;;;;;27.09;54.12;100537.16;5054171;28;20051;-76
2021/06/06 13:06:49;;;;;;;7.95;2.92;;;;;;;27.26;52.17;100538.13;5054038;28;20056;-77
2021/06/06 13:09:57;;;;;;;10.90;3.92;;;;;;;26.96;53.34;100543.75;5053700;28;20052;-75
2021/06/06 13:13:15;;;;;;;9.13;3.00;;;;;;;26.88;53.78;100544.09;5053978;28;20047;-76
2021/06/06 13:16:20;;;;;;;13.43;3.70;;;;;;;26.77;53.92;100547.66;5053111;28;20064;-76
2021/06/06 13:19:27;;;;;;;11.50;3.50;;;;;;;26.79;54.49;100547.41;5053879;28;20048;-76
2021/06/06 13:22:34;;;;;;;8.25;3.45;;;;;;;27.27;53.10;100541.75;5053754;28;20491;-76
2021/06/06 13:25:53;;;;;;;9.82;4.10;;;;;;;26.85;54.67;100546.47;5053374;28;20056;-77
2021/06/06 13:29:04;;;;;;;7.40;3.22;;;;;;;27.08;54.01;100530.00;5054110;28;20056;-77
2021/06/06 13:32:19;;;;;;;7.72;3.15;;;;;;;27.37;53.30;100525.44;5053525;28;20052;-76
2021/06/06 13:35:24;;;;;;;7.70;3.35;;;;;;;27.09;54.21;100518.72;5053753;28;20056;-76
2021/06/06 13:38:29;;;;;;;8.80;4.00;;;;;;;26.55;56.56;100520.84;5053674;28;20056;-76
2021/06/06 13:41:34;;;;;;;10.63;4.00;;;;;;;26.73;56.66;100518.03;5053267;28;20404;-76
2021/06/06 13:44:39;;;;;;;12.35;4.50;;;;;;;26.71;56.63;100515.53;5053473;28;20044;-75
2021/06/06 13:47:44;;;;;;;17.13;3.72;;;;;;;27.23;54.00;100511.06;5053308;28;20048;-76
2021/06/06 13:50:48;;;;;;;7.32;3.13;;;;;;;26.83;54.00;100512.81;5053321;28;20064;-76
2021/06/06 13:53:52;;;;;;;8.98;3.13;;;;;;;26.80;53.86;100508.63;5053494;28;20373;-76
2021/06/06 13:56:57;;;;;;;7.35;2.80;;;;;;;26.74;53.50;100503.19;5053532;28;20104;-76
2021/06/06 14:00:05;;;;;;;7.22;2.28;;;;;;;26.59;53.68;100503.63;5052647;28;20044;-75
2021/06/06 14:03:16;;;;;;;8.38;2.65;;;;;;;26.07;53.66;100504.34;5053158;28;20087;-85
2021/06/06 14:06:20;;;;;;;8.82;2.58;;;;;;;26.05;54.67;100496.31;5041179;28;20101;-75
2021/06/06 14:09:25;;;;;;;12.15;2.90;;;;;;;25.74;54.96;100494.59;5013555;28;20052;-77
2021/06/06 14:12:29;;;;;;;7.60;2.70;;;;;;;25.72;54.92;100488.50;5014049;28;20049;-76
2021/06/06 14:18:46;;;;;;;8.07;2.35;;;;;;;25.52;55.04;100487.03;5013239;28;20056;-76